Time;durP1;ratioP1;P1;durP2;ratioP2;P2;SDS_P1;SDS_P2;PMS_P1;PMS_P2;Temp;Humidity;BMP_temperature;BMP_pressure;BME280_temperature;BME280_humidity;BME280_pressure;Samples;Min_cycle;Max_cycle;Signal;HPM_P1;HPM_P2
2021/07/12 00:00:26;;;;;;;3.67;2.72;;;;;;;18.59;61.67;100513.53;347097;28;136933;-67
2021/07/12 00:00:40;;;;;;;3.97;3.00;;;;;;;18.58;61.32;100519.88;348461;28;138401;-71
2021/07/12 00:00:53;;;;;;;4.45;2.80;;;;;;;18.59;61.74;100515.38;350193;28;93093;-66
2021/07/12 00:01:06;;;;;;;4.35;2.72;;;;;;;18.57;61.32;100506.63;351024;28;69041;-70
2021/07/12 00:01:19;;;;;;;3.45;2.75;;;;;;;18.50;61.62;100518.81;351053;28;68583;-66
2021/07/12 00:01:32;;;;;;;4.18;2.85;;;;;;;18.35;62.18;100515.63;350946;28;69757;-66
2021/07/12 00:01:45;;;;;;;5.68;3.00;;;;;;;18.35;61.69;100516.44;350949;28;68784;-66
2021/07/12 00:01:58;;;;;;;5.43;2.97;;;;;;;18.40;62.16;100511.56;352123;27;70048;-65
2021/07/12 00:02:11;;;;;;;5.47;2.83;;;;;;;18.38;62.07;100513.53;351630;27;92721;-67
2021/07/12 00:02:23;;;;;;;5.75;2.88;;;;;;;18.44;62.09;100514.84;353229;27;47562;-67
2021/07/12 00:02:36;;;;;;;5.03;2.90;;;;;;;18.53;62.13;100515.88;352371;27;69860;-68
2021/07/12 00:02:50;;;;;;;3.22;2.70;;;;;;;18.53;61.60;100514.06;352495;27;68786;-67
2021/07/12 00:03:05;;;;;;;3.13;2.83;;;;;;;18.30;62.16;100513.34;352452;27;69993;-66
2021/07/12 00:03:18;;;;;;;3.30;2.95;;;;;;;18.33;62.09;100514.88;350057;27;137629;-68
2021/07/12 00:03:34;;;;;;;3.78;2.78;;;;;;;18.26;62.61;100517.25;350263;27;139229;-69
2021/07/12 00:03:47;;;;;;;4.25;2.80;;;;;;;18.31;62.58;100523.03;351058;28;70132;-68
2021/07/12 00:03:59;;;;;;;3.92;2.80;;;;;;;18.34;62.34;100514.78;351022;28;70310;-67
2021/07/12 00:04:13;;;;;;;4.10;2.60;;;;;;;18.38;62.28;100513.53;351652;28;44891;-65
2021/07/12 00:04:25;;;;;;;3.88;2.60;;;;;;;18.42;62.22;100504.28;350174;28;92033;-65
2021/07/12 00:04:38;;;;;;;4.75;2.90;;;;;;;18.44;62.05;100510.34;350900;28;68906;-68
2021/07/12 00:04:51;;;;;;;5.95;2.90;;;;;;;18.47;61.78;100509.22;350955;28;70033;-69
2021/07/12 00:05:05;;;;;;;5.60;2.88;;;;;;;18.49;61.88;100504.59;351779;28;45349;-66
2021/07/12 00:05:19;;;;;;;4.07;2.75;;;;;;;18.47;61.93;100504.72;349256;28;114828;-65
2021/07/12 00:05:31;;;;;;;4.65;2.90;;;;;;;18.42;61.86;100508.75;351031;28;68478;-67
2021/07/12 00:05:44;;;;;;;5.20;3.10;;;;;;;18.37;62.31;100503.81;351014;27;70452;-68
2021/07/12 00:05:56;;;;;;;3.45;3.00;;;;;;;18.40;62.35;100502.72;353181;27;67901;-65
2021/07/12 00:06:12;;;;;;;2.97;2.70;;;;;;;18.44;62.15;100502.31;350985;27;114852;-66
2021/07/12 00:06:26;;;;;;;3.40;2.80;;;;;;;18.47;61.97;100498.53;351162;27;114113;-65
2021/07/12 00:06:47;;;;;;;4.45;2.83;;;;;;;18.52;62.26;100495.47;350236;28;92875;-68
2021/07/12 00:06:59;;;;;;;4.72;2.92;;;;;;;18.57;61.97;100498.59;347273;28;138745;-65
2021/07/12 00:07:14;;;;;;;4.97;3.05;;;;;;;18.61;61.84;100494.69;348763;27;115719;-65
2021/07/12 00:07:28;;;;;;;4.65;2.90;;;;;;;18.60;61.52;100490.31;349112;28;93083;-67
2021/07/12 00:07:41;;;;;;;4.07;2.80;;;;;;;18.57;61.35;100495.94;349622;28;70050;-66
2021/07/12 00:07:54;;;;;;;4.82;2.92;;;;;;;18.59;61.63;100494.00;349682;28;70069;-68
2021/07/12 00:08:10;;;;;;;4.95;2.97;;;;;;;18.56;61.31;100497.75;349657;28;68815;-65
2021/07/12 00:08:22;;;;;;;5.10;2.88;;;;;;;18.52;61.49;100500.81;346634;28;114704;-64
2021/07/12 00:08:36;;;;;;;5.57;2.95;;;;;;;18.46;61.71;100492.34;346927;28;67522;-66
2021/07/12 00:08:48;;;;;;;3.97;2.88;;;;;;;18.45;62.12;100506.69;347987;28;69998;-70
2021/07/12 00:09:05;;;;;;;3.30;2.60;;;;;;;18.43;61.99;100487.25;346976;28;138427;-66
2021/07/12 00:09:17;;;;;;;4.10;2.72;;;;;;;18.48;61.89;100495.72;348744;28;92548;-64
2021/07/12 00:09:30;;;;;;;5.07;3.13;;;;;;;18.53;61.98;100497.16;350352;28;44890;-66
2021/07/12 00:09:43;;;;;;;4.25;3.10;;;;;;;18.53;61.57;100494.50;349523;28;69089;-65
2021/07/12 00:09:56;;;;;;;3.20;2.90;;;;;;;18.46;61.84;100494.16;349444;28;70159;-65
2021/07/12 00:10:11;;;;;;;3.35;2.80;;;;;;;18.40;62.11;100498.19;348100;28;70079;-65
2021/07/12 00:10:26;;;;;;;3.60;2.70;;;;;;;18.46;62.16;100497.69;347140;28;114797;-65
2021/07/12 00:10:39;;;;;;;5.70;2.97;;;;;;;18.49;61.87;100493.88;347865;28;115393;-67
2021/07/12 00:10:52;;;;;;;7.32;3.20;;;;;;;18.32;62.10;100498.00;348164;28;68822;-69
2021/07/12 00:11:04;;;;;;;7.18;3.10;;;;;;;18.23;62.54;100496.97;348970;28;67826;-65
2021/07/12 00:11:19;;;;;;;4.80;2.95;;;;;;;18.32;62.68;100492.66;348254;28;114862;-63
2021/07/12 00:11:36;;;;;;;4.28;2.90;;;;;;;18.28;62.27;100496.56;347201;28;138937;-68
2021/07/12 00:11:49;;;;;;;3.45;2.70;;;;;;;18.36;62.31;100496.75;349528;28;69647;-69
2021/07/12 00:12:07;;;;;;;3.80;2.83;;;;;;;18.43;62.30;100497.09;349627;28;67742;-64
2021/07/12 00:12:23;;;;;;;5.47;3.10;;;;;;;18.42;61.96;100492.72;348484;28;138409;-66
2021/07/12 00:12:36;;;;;;;5.40;3.15;;;;;;;18.39;62.11;100491.16;350844;28;69950;-65
2021/07/12 00:12:50;;;;;;;4.63;2.97;;;;;;;18.43;61.98;100492.59;351058;27;69001;-65
2021/07/12 00:13:04;;;;;;;3.83;2.85;;;;;;;18.46;62.19;100488.81;351589;27;91936;-64
2021/07/12 00:13:17;;;;;;;5.18;3.10;;;;;;;18.52;62.37;100485.63;351693;27;92685;-65
2021/07/12 00:13:29;;;;;;;4.85;2.95;;;;;;;18.54;61.95;100488.19;352395;27;68986;-67
2021/07/12 00:13:42;;;;;;;4.63;2.80;;;;;;;18.47;61.66;100485.16;352343;27;68932;-65
2021/07/12 00:13:55;;;;;;;4.93;2.92;;;;;;;18.54;61.87;100488.19;352377;27;69957;-66
2021/07/12 00:14:11;;;;;;;3.95;2.80;;;;;;;18.59;61.96;100488.63;353412;27;45399;-65
2021/07/12 00:14:27;;;;;;;4.13;2.90;;;;;;;18.48;61.60;100489.53;348693;28;135368;-67
2021/07/12 00:14:40;;;;;;;5.57;3.00;;;;;;;18.46;61.73;100484.34;348372;28;138781;-65
2021/07/12 00:14:52;;;;;;;5.80;2.80;;;;;;;18.46;61.94;100481.66;351724;28;45963;-65
2021/07/12 00:15:08;;;;;;;4.90;2.97;;;;;;;18.53;62.29;100483.78;350933;28;67856;-64
2021/07/12 00:15:27;;;;;;;4.88;3.08;;;;;;;18.50;61.92;100481.38;348360;28;137950;-67
2021/07/12 00:15:43;;;;;;;5.05;3.15;;;;;;;18.33;62.37;100481.00;348482;28;137530;-65
2021/07/12 00:15:58;;;;;;;5.63;3.20;;;;;;;18.40;62.40;100476.81;347467;28;138001;-65
2021/07/12 00:16:11;;;;;;;6.15;3.13;;;;;;;18.44;62.29;100480.09;349516;28;67784;-68
2021/07/12 00:16:24;;;;;;;5.13;2.90;;;;;;;18.39;62.12;100480.44;349861;28;68904;-65
2021/07/12 00:16:39;;;;;;;3.97;3.00;;;;;;;18.31;62.36;100475.78;350330;28;67925;-65
2021/07/12 00:16:52;;;;;;;3.95;3.00;;;;;;;18.35;62.34;100481.69;347248;28;137882;-66
2021/07/12 00:17:05;;;;;;;4.25;3.10;;;;;;;18.37;62.13;100469.06;349673;28;67686;-65
2021/07/12 00:17:18;;;;;;;4.15;3.22;;;;;;;18.38;62.27;100478.78;349638;28;70023;-66
2021/07/12 00:17:31;;;;;;;4.57;3.10;;;;;;;18.35;62.34;100471.00;348186;28;69576;-65
2021/07/12 00:17:45;;;;;;;4.55;3.00;;;;;;;18.34;62.22;100472.00;349019;28;45894;-65
2021/07/12 00:18:01;;;;;;;4.90;3.00;;;;;;;18.42;62.41;100471.34;347371;28;138575;-68
2021/07/12 00:18:14;;;;;;;4.80;3.05;;;;;;;18.37;62.49;100471.72;349539;28;69740;-68
2021/07/12 00:18:26;;;;;;;4.78;3.20;;;;;;;18.30;62.30;100466.06;350367;28;45975;-66
2021/07/12 00:18:41;;;;;;;5.20;3.30;;;;;;;18.28;62.48;100467.16;351134;28;45244;-65
2021/07/12 00:18:58;;;;;;;3.75;3.05;;;;;;;18.27;62.62;100462.78;348893;28;137658;-66
2021/07/12 00:19:12;;;;;;;3.38;2.95;;;;;;;18.20;62.69;100459.75;350078;28;93172;-65
2021/07/12 00:19:24;;;;;;;4.03;3.00;;;;;;;18.19;62.92;100460.75;350859;28;68329;-65
2021/07/12 00:19:37;;;;;;;4.86;3.02;;;;;;;18.10;62.76;100467.72;353188;27;44843;-64
2021/07/12 00:19:50;;;;;;;4.47;2.88;;;;;;;18.09;63.27;100463.38;353406;27;46086;-64
2021/07/12 00:20:08;;;;;;;5.07;2.97;;;;;;;18.13;63.24;100462.13;352335;27;69423;-64
2021/07/12 00:20:21;;;;;;;4.78;3.00;;;;;;;18.20;63.13;100465.09;349990;27;137421;-66
2021/07/12 00:20:34;;;;;;;3.80;3.00;;;;;;;18.26;62.77;100466.44;351488;27;93399;-66
2021/07/12 00:20:47;;;;;;;4.30;3.15;;;;;;;18.28;62.70;100461.81;352560;27;67808;-64
2021/07/12 00:20:59;;;;;;;4.65;3.17;;;;;;;18.27;62.74;100460.09;353313;27;47231;-65
2021/07/12 00:21:12;;;;;;;3.90;3.05;;;;;;;18.33;62.68;100459.59;352647;27;69970;-66
2021/07/12 00:21:25;;;;;;;4.53;3.03;;;;;;;18.23;62.47;100466.69;352462;27;69546;-64
2021/07/12 00:21:39;;;;;;;4.38;2.95;;;;;;;18.29;62.64;100461.66;351629;27;92031;-66
2021/07/12 00:21:51;;;;;;;4.38;2.90;;;;;;;18.30;62.33;100459.88;352544;27;67626;-65
2021/07/12 00:22:06;;;;;;;4.75;3.10;;;;;;;18.29;62.58;100461.66;351123;27;114718;-65
2021/07/12 00:22:20;;;;;;;3.53;2.88;;;;;;;18.28;62.57;100464.47;353231;27;46087;-70
2021/07/12 00:22:35;;;;;;;3.20;2.90;;;;;;;18.22;62.75;100459.66;351588;27;92838;-65
2021/07/12 00:22:52;;;;;;;3.45;3.00;;;;;;;18.14;62.76;100455.78;350361;27;137710;-69
2021/07/12 00:23:04;;;;;;;4.85;3.00;;;;;;;18.11;63.30;100464.06;350050;27;136861;-65
2021/07/12 00:23:17;;;;;;;5.13;3.03;;;;;;;18.19;63.21;100467.91;352272;27;70027;-65
2021/07/12 00:23:30;;;;;;;4.28;3.10;;;;;;;18.19;62.71;100463.44;350665;28;68860;-69
2021/07/12 00:23:43;;;;;;;3.70;3.20;;;;;;;18.17;62.72;100459.19;351495;28;45639;-65
2021/07/12 00:23:55;;;;;;;4.05;3.05;;;;;;;18.17;62.99;100460.03;350942;28;69848;-65
2021/07/12 00:24:08;;;;;;;3.83;3.00;;;;;;;18.17;62.91;100461.88;349462;28;68888;-69
2021/07/12 00:24:21;;;;;;;3.30;2.95;;;;;;;18.20;62.81;100454.41;349650;28;67714;-65
2021/07/12 00:24:33;;;;;;;4.00;3.00;;;;;;;18.17;63.00;100459.19;350338;28;45585;-65
2021/07/12 00:24:46;;;;;;;3.67;3.00;;;;;;;18.15;63.24;100464.66;349521;28;69532;-65
2021/07/12 00:24:58;;;;;;;3.83;3.00;;;;;;;18.19;62.95;100457.22;349525;28;68838;-65
2021/07/12 00:25:14;;;;;;;4.00;2.94;;;;;;;18.24;62.92;100455.03;348251;28;114987;-65
2021/07/12 00:25:29;;;;;;;4.20;2.97;;;;;;;18.28;62.74;100459.13;349610;28;68875;-67
2021/07/12 00:25:42;;;;;;;4.40;3.08;;;;;;;18.35;62.62;100462.13;348478;28;138838;-69
2021/07/12 00:25:57;;;;;;;4.22;3.17;;;;;;;18.39;62.77;100459.06;351700;28;45416;-65
2021/07/12 00:26:10;;;;;;;3.95;2.83;;;;;;;18.37;62.65;100449.47;349904;27;116469;-66
2021/07/12 00:26:25;;;;;;;4.55;2.85;;;;;;;18.41;62.45;100456.25;350339;27;137865;-65
2021/07/12 00:26:38;;;;;;;3.90;2.88;;;;;;;18.42;62.57;100463.31;352390;27;67930;-65
2021/07/12 00:26:51;;;;;;;3.30;2.80;;;;;;;18.30;62.50;100458.03;352401;27;68442;-65
2021/07/12 00:27:04;;;;;;;4.70;3.00;;;;;;;18.22;62.52;100459.66;353288;27;46556;-71
2021/07/12 00:27:17;;;;;;;4.85;2.90;;;;;;;18.20;62.98;100451.75;352803;27;91815;-66
2021/07/12 00:27:32;;;;;;;3.70;2.70;;;;;;;18.23;62.63;100458.66;349365;28;114838;-67
2021/07/12 00:27:45;;;;;;;4.35;2.97;;;;;;;18.20;62.97;100453.59;350952;28;70229;-67
2021/07/12 00:27:59;;;;;;;4.30;2.90;;;;;;;18.19;62.86;100460.75;350980;28;68488;-68
2021/07/12 00:28:12;;;;;;;3.42;2.50;;;;;;;18.18;63.17;100452.88;350208;28;93071;-65
2021/07/12 00:28:24;;;;;;;3.75;2.60;;;;;;;18.19;62.95;100452.75;350959;28;68907;-67
2021/07/12 00:28:38;;;;;;;3.72;2.65;;;;;;;18.13;63.24;100451.44;351824;28;45948;-65
2021/07/12 00:28:50;;;;;;;4.03;2.50;;;;;;;18.11;63.21;100450.69;348755;28;91440;-66
2021/07/12 00:29:04;;;;;;;4.63;2.63;;;;;;;18.16;63.50;100452.97;349527;28;67925;-65
2021/07/12 00:29:16;;;;;;;4.40;2.88;;;;;;;18.24;62.97;100453.19;348186;28;70195;-66
2021/07/12 00:29:29;;;;;;;3.88;3.10;;;;;;;18.27;62.89;100450.28;348278;28;70128;-65
2021/07/12 00:29:42;;;;;;;3.95;3.10;;;;;;;18.11;62.80;100456.03;347123;28;65840;-67
2021/07/12 00:29:56;;;;;;;4.07;3.20;;;;;;;18.07;63.22;100454.59;348967;28;44914;-66
2021/07/12 00:30:14;;;;;;;3.55;3.08;;;;;;;18.07;63.30;100459.94;346092;28;137598;-73
2021/07/12 00:30:28;;;;;;;3.67;2.63;;;;;;;18.03;63.20;100450.50;345738;28;138763;-65
2021/07/12 00:30:40;;;;;;;4.32;2.80;;;;;;;18.01;63.76;100454.25;344730;28;92007;-66
2021/07/12 00:30:55;;;;;;;5.47;3.15;;;;;;;18.02;63.67;100456.81;344883;28;114965;-65
2021/07/12 00:31:08;;;;;;;5.80;3.38;;;;;;;18.05;63.16;100450.38;347622;28;45619;-64
2021/07/12 00:31:21;;;;;;;5.53;3.35;;;;;;;18.08;63.23;100456.31;347016;28;92959;-65
2021/07/12 00:31:34;;;;;;;4.35;3.15;;;;;;;18.08;63.43;100450.97;348184;28;68898;-64
2021/07/12 00:31:47;;;;;;;3.60;2.92;;;;;;;18.07;63.42;100454.59;349138;28;67867;-70
2021/07/12 00:32:00;;;;;;;3.47;2.97;;;;;;;18.13;63.34;100451.44;349643;28;70016;-65
2021/07/12 00:32:13;;;;;;;3.75;3.08;;;;;;;18.20;63.22;100454.41;349949;28;67985;-66
2021/07/12 00:32:25;;;;;;;3.60;2.97;;;;;;;18.26;62.95;100455.75;350331;28;47235;-65
2021/07/12 00:32:39;;;;;;;4.68;3.00;;;;;;;18.20;62.81;100459.75;349832;27;68771;-67
2021/07/12 00:32:53;;;;;;;5.03;3.00;;;;;;;18.20;63.11;100453.59;352821;27;69032;-67
2021/07/12 00:33:06;;;;;;;4.70;2.90;;;;;;;18.16;63.04;100452.97;351089;27;115330;-68
2021/07/12 00:33:18;;;;;;;4.57;2.80;;;;;;;18.16;63.03;100452.16;352762;27;69533;-70
2021/07/12 00:33:32;;;;;;;4.85;2.83;;;;;;;18.19;62.72;100457.22;353421;27;47049;-67
2021/07/12 00:33:44;;;;;;;4.00;2.92;;;;;;;18.09;63.28;100457.16;351999;27;91946;-66
2021/07/12 00:33:57;;;;;;;5.43;3.10;;;;;;;18.16;63.38;100457.50;352075;27;46074;-69
2021/07/12 00:34:10;;;;;;;6.13;3.10;;;;;;;18.17;63.18;100459.19;351201;27;69047;-64
2021/07/12 00:34:22;;;;;;;5.30;2.97;;;;;;;18.22;62.96;100454.31;351132;27;69079;-67
2021/07/12 00:34:40;;;;;;;3.10;2.80;;;;;;;18.28;62.92;100456.47;349622;27;114776;-65
2021/07/12 00:34:53;;;;;;;3.25;2.78;;;;;;;18.34;63.09;100457.75;349599;27;115981;-65
2021/07/12 00:35:10;;;;;;;3.63;2.80;;;;;;;18.35;62.88;100462.97;349933;27;114821;-67
2021/07/12 00:35:23;;;;;;;3.88;2.75;;;;;;;18.40;62.70;100455.41;349467;27;114756;-71
2021/07/12 00:35:36;;;;;;;4.20;2.63;;;;;;;18.41;62.66;100462.47;350440;27;91854;-66
2021/07/12 00:35:49;;;;;;;3.85;2.60;;;;;;;18.42;62.44;100463.31;351194;27;68997;-68
2021/07/12 00:36:01;;;;;;;3.65;2.70;;;;;;;18.43;62.33;100462.34;353159;27;44859;-65
2021/07/12 00:36:14;;;;;;;3.85;2.60;;;;;;;18.43;62.17;100463.19;351223;27;68981;-67
2021/07/12 00:36:27;;;;;;;4.13;2.60;;;;;;;18.44;62.39;100464.03;351097;27;69749;-68
2021/07/12 00:36:39;;;;;;;4.20;2.60;;;;;;;18.43;62.24;100463.19;351454;27;67853;-68
2021/07/12 00:36:52;;;;;;;4.47;2.60;;;;;;;18.47;62.14;100458.44;351958;27;45581;-67
2021/07/12 00:37:05;;;;;;;4.10;2.75;;;;;;;18.46;62.24;100470.97;351178;27;69025;-65
2021/07/12 00:37:18;;;;;;;3.53;2.70;;;;;;;18.44;62.21;100467.56;351282;27;67874;-68
2021/07/12 00:37:30;;;;;;;3.28;2.53;;;;;;;18.47;62.51;100464.59;351154;27;68968;-66
2021/07/12 00:37:43;;;;;;;3.50;2.63;;;;;;;18.47;62.30;100466.44;351126;27;68784;-69
2021/07/12 00:37:56;;;;;;;4.64;2.78;;;;;;;18.44;62.36;100467.56;352962;27;45404;-66
2021/07/12 00:38:09;;;;;;;4.22;2.80;;;;;;;18.46;62.52;100476.31;351296;27;68211;-65
2021/07/12 00:38:24;;;;;;;3.28;2.80;;;;;;;18.45;62.38;100463.91;351881;27;45421;-70
2021/07/12 00:38:37;;;;;;;3.40;2.63;;;;;;;18.44;61.99;100472.06;349539;27;116086;-66
2021/07/12 00:38:52;;;;;;;3.75;2.50;;;;;;;18.28;62.46;100467.16;349378;27;138437;-68
2021/07/12 00:39:05;;;;;;;3.55;2.50;;;;;;;18.32;62.83;100468.59;351975;27;45329;-69
2021/07/12 00:39:18;;;;;;;3.42;2.53;;;;;;;18.33;62.67;100464.06;350247;27;91878;-65
2021/07/12 00:39:31;;;;;;;3.80;2.60;;;;;;;18.26;62.69;100458.44;351267;27;68951;-68
2021/07/12 00:39:44;;;;;;;4.90;2.80;;;;;;;18.31;62.93;100470.44;351099;27;68960;-66
2021/07/12 00:39:56;;;;;;;5.25;2.80;;;;;;;18.39;62.88;100468.94;351218;27;68951;-65
2021/07/12 00:40:13;;;;;;;3.85;2.65;;;;;;;18.42;62.72;100464.19;351895;27;70638;-65
2021/07/12 00:40:27;;;;;;;3.13;2.47;;;;;;;18.44;62.65;100466.72;350237;27;137569;-65
2021/07/12 00:40:40;;;;;;;3.80;2.63;;;;;;;18.47;62.43;100467.28;351783;27;93051;-65
2021/07/12 00:40:52;;;;;;;4.80;2.70;;;;;;;18.49;62.26;100475.16;352535;27;68902;-67
2021/07/12 00:41:05;;;;;;;3.65;2.53;;;;;;;18.49;62.53;100464.47;352733;27;67855;-69
2021/07/12 00:41:18;;;;;;;4.10;2.58;;;;;;;18.48;62.16;100471.66;353415;27;45535;-68
2021/07/12 00:41:30;;;;;;;4.40;2.63;;;;;;;18.44;62.18;100470.22;352812;27;69635;-68
2021/07/12 00:41:43;;;;;;;4.20;2.80;;;;;;;18.45;62.04;100468.38;352816;27;67628;-65
2021/07/12 00:41:55;;;;;;;3.92;2.85;;;;;;;18.38;62.18;100465.41;353604;27;46090;-65
2021/07/12 00:42:08;;;;;;;5.32;2.90;;;;;;;18.38;62.38;100467.22;351330;27;68862;-66
2021/07/12 00:42:21;;;;;;;5.80;2.70;;;;;;;18.41;62.28;100466.94;351306;27;69000;-65
2021/07/12 00:42:34;;;;;;;4.43;2.50;;;;;;;18.35;62.33;100467.50;351077;27;69927;-67
2021/07/12 00:42:48;;;;;;;3.80;2.30;;;;;;;18.32;62.55;100463.25;351086;27;68370;-64
2021/07/12 00:43:02;;;;;;;3.28;2.20;;;;;;;18.33;62.57;100464.06;350398;27;92020;-66
2021/07/12 00:43:15;;;;;;;2.50;2.30;;;;;;;18.30;62.67;100476.75;350485;27;91352;-67
2021/07/12 00:43:29;;;;;;;2.72;2.53;;;;;;;18.25;62.76;100472.75;350377;27;93088;-65
2021/07/12 00:43:44;;;;;;;2.90;2.58;;;;;;;18.13;62.79;100475.50;348876;27;138887;-65
2021/07/12 00:44:00;;;;;;;3.03;2.40;;;;;;;18.12;63.04;100471.13;349443;27;114777;-66
2021/07/12 00:44:14;;;;;;;2.65;2.30;;;;;;;18.17;62.73;100473.41;351332;27;93290;-65
2021/07/12 00:44:27;;;;;;;4.20;2.50;;;;;;;18.18;62.72;100474.25;351903;27;91939;-66
2021/07/12 00:44:41;;;;;;;4.72;2.60;;;;;;;18.18;62.97;100482.28;353554;27;44912;-67
2021/07/12 00:44:57;;;;;;;4.30;2.50;;;;;;;18.13;63.18;100475.50;351065;27;114848;-65
2021/07/12 00:45:16;;;;;;;3.13;2.35;;;;;;;18.09;63.05;100483.88;350642;27;137707;-65
2021/07/12 00:45:30;;;;;;;3.13;2.20;;;;;;;18.10;63.29;100491.75;348780;27;137768;-66
2021/07/12 00:45:43;;;;;;;3.40;2.30;;;;;;;18.14;63.16;100481.69;350488;27;92621;-69
2021/07/12 00:45:56;;;;;;;5.35;2.45;;;;;;;18.20;63.27;100482.97;351213;27;68986;-67
2021/07/12 00:46:11;;;;;;;5.57;2.47;;;;;;;18.24;62.85;100487.09;348388;28;116226;-67
2021/07/12 00:46:26;;;;;;;5.72;2.30;;;;;;;18.23;63.00;100486.25;349822;28;69552;-68
2021/07/12 00:46:39;;;;;;;4.97;2.30;;;;;;;18.25;63.08;100486.13;348190;28;114696;-67
2021/07/12 00:46:55;;;;;;;3.60;2.42;;;;;;;18.25;62.87;100488.81;347595;28;137779;-64
2021/07/12 00:47:08;;;;;;;4.25;2.45;;;;;;;18.23;63.02;100488.06;349033;28;92172;-67
2021/07/12 00:47:20;;;;;;;3.92;2.22;;;;;;;18.17;63.21;100489.44;350482;28;47184;-69
2021/07/12 00:47:34;;;;;;;4.57;2.20;;;;;;;18.15;63.01;100488.72;350775;27;68997;-70
2021/07/12 00:47:48;;;;;;;4.47;2.40;;;;;;;18.13;63.05;100480.84;351215;27;70067;-66
2021/07/12 00:48:01;;;;;;;2.88;2.50;;;;;;;18.18;63.46;100499.16;349549;27;116138;-68
2021/07/12 00:48:14;;;;;;;3.83;2.58;;;;;;;18.21;63.36;100488.19;351161;27;68973;-65
2021/07/12 00:48:28;;;;;;;4.22;2.42;;;;;;;18.25;63.04;100488.81;350999;27;68842;-65
2021/07/12 00:48:40;;;;;;;4.10;2.72;;;;;;;18.27;63.11;100492.19;351184;27;92210;-65
2021/07/12 00:48:55;;;;;;;3.85;3.00;;;;;;;18.27;62.78;100492.19;351308;27;114893;-67
2021/07/12 00:49:08;;;;;;;5.05;2.85;;;;;;;18.24;62.94;100497.78;352611;27;68446;-70
2021/07/12 00:49:26;;;;;;;5.80;2.60;;;;;;;18.27;62.99;100494.84;350099;27;137591;-74
2021/07/12 00:49:39;;;;;;;4.05;2.30;;;;;;;18.28;63.10;100494.72;351150;27;115942;-71
2021/07/12 00:49:51;;;;;;;3.13;2.15;;;;;;;18.30;63.07;100494.63;352741;27;69929;-65
2021/07/12 00:50:07;;;;;;;3.65;2.20;;;;;;;18.33;63.30;100501.50;352386;27;69846;-73
2021/07/12 00:50:22;;;;;;;4.15;2.30;;;;;;;18.33;62.78;100493.50;350946;27;115856;-72
2021/07/12 00:50:38;;;;;;;3.15;2.10;;;;;;;18.23;63.01;100494.28;350129;27;138744;-65
2021/07/12 00:50:51;;;;;;;4.65;2.05;;;;;;;18.24;62.99;100492.44;350319;27;138846;-69
2021/07/12 00:51:09;;;;;;;4.97;2.25;;;;;;;18.19;62.69;100503.53;350434;27;139078;-64
2021/07/12 00:51:23;;;;;;;3.30;2.20;;;;;;;18.19;63.16;100492.84;351206;27;114219;-64
2021/07/12 00:51:36;;;;;;;3.05;2.30;;;;;;;18.15;62.83;100502.09;351875;27;91883;-65
2021/07/12 00:51:49;;;;;;;3.42;2.42;;;;;;;18.14;63.12;100503.91;352578;27;69936;-65
2021/07/12 00:52:03;;;;;;;3.65;2.50;;;;;;;18.21;63.11;100506.06;352624;27;69617;-64
2021/07/12 00:52:16;;;;;;;3.10;2.20;;;;;;;18.25;63.00;100502.16;351817;27;92488;-67
2021/07/12 00:52:29;;;;;;;2.88;1.98;;;;;;;18.25;62.96;100505.69;351898;27;91919;-66
2021/07/12 00:52:42;;;;;;;3.50;2.10;;;;;;;18.22;62.75;100505.09;353531;27;44897;-68
2021/07/12 00:52:56;;;;;;;4.25;2.17;;;;;;;18.24;63.02;100508.47;351789;27;91233;-65
2021/07/12 00:53:10;;;;;;;4.25;2.22;;;;;;;18.18;62.99;100509.00;351881;27;91905;-67
2021/07/12 00:53:23;;;;;;;4.70;2.38;;;;;;;18.04;62.87;100504.78;351871;27;92025;-70
2021/07/12 00:53:38;;;;;;;4.57;2.30;;;;;;;17.92;63.91;100509.31;351339;27;115910;-64
2021/07/12 00:53:52;;;;;;;3.45;2.20;;;;;;;17.95;63.71;100514.41;352696;27;68476;-69
2021/07/12 00:54:06;;;;;;;2.67;2.17;;;;;;;18.05;63.77;100507.34;351420;27;114132;-68
2021/07/12 00:54:19;;;;;;;2.60;2.15;;;;;;;18.10;63.53;100507.78;351983;27;69195;-69
2021/07/12 00:54:31;;;;;;;3.17;2.15;;;;;;;18.14;63.34;100508.41;352751;27;68418;-67
2021/07/12 00:54:45;;;;;;;2.97;2.10;;;;;;;18.21;63.26;100506.06;353572;27;44862;-70
2021/07/12 00:54:58;;;;;;;3.03;2.00;;;;;;;18.22;63.23;100515.81;350446;27;92107;-66
2021/07/12 00:55:16;;;;;;;3.55;2.13;;;;;;;18.28;62.77;100507.25;351133;27;69911;-65
2021/07/12 00:55:46;;;;;;;3.70;2.30;;;;;;;18.32;63.06;100506.03;348748;27;137457;-68
2021/07/12 00:55:59;;;;;;;4.38;2.30;;;;;;;18.36;62.72;100512.81;347401;28;137186;-66
2021/07/12 00:56:12;;;;;;;2.60;2.10;;;;;;;18.37;62.63;100508.28;350696;28;45537;-65
2021/07/12 00:56:25;;;;;;;3.13;2.10;;;;;;;18.38;62.61;100510.00;349799;28;68433;-65
2021/07/12 00:56:38;;;;;;;4.15;2.35;;;;;;;18.37;62.42;100508.28;348364;28;68931;-71
2021/07/12 00:56:55;;;;;;;4.13;2.45;;;;;;;18.34;62.84;100508.56;345812;28;137807;-67
2021/07/12 00:57:08;;;;;;;3.33;2.30;;;;;;;18.32;62.57;100511.38;348121;28;114910;-72
2021/07/12 00:57:21;;;;;;;3.05;2.30;;;;;;;18.29;62.85;100506.28;349756;28;70090;-66
2021/07/12 00:57:33;;;;;;;2.96;2.08;;;;;;;18.25;63.03;100510.19;350522;28;44950;-67
2021/07/12 00:57:47;;;;;;;3.40;2.00;;;;;;;18.21;62.81;100512.25;350539;28;45337;-66
2021/07/12 00:58:04;;;;;;;2.95;2.10;;;;;;;18.20;63.05;100507.03;348121;28;91869;-68
2021/07/12 00:58:20;;;;;;;3.12;2.26;;;;;;;18.17;63.25;100504.63;346470;28;161770;-66
2021/07/12 00:58:33;;;;;;;5.25;2.30;;;;;;;18.14;63.55;100506.56;347313;28;137705;-68
2021/07/12 00:58:46;;;;;;;4.82;2.17;;;;;;;18.14;63.49;100505.72;350458;27;91815;-68
2021/07/12 00:58:59;;;;;;;3.53;2.10;;;;;;;18.17;63.45;100502.78;350614;28;45935;-69
2021/07/12 00:59:11;;;;;;;3.80;2.03;;;;;;;18.22;63.24;100515.81;350148;27;67778;-69
2021/07/12 00:59:25;;;;;;;3.13;2.00;;;;;;;18.17;63.02;100512.66;349832;28;70020;-73
2021/07/12 00:59:38;;;;;;;2.38;2.05;;;;;;;18.08;63.44;100508.91;348800;28;91906;-69
2021/07/12 00:59:51;;;;;;;2.88;2.20;;;;;;;18.04;63.57;100505.66;349760;28;70041;-70
2021/07/12 01:00:08;;;;;;;3.03;2.10;;;;;;;18.03;63.35;100506.63;349213;27;114068;-67
2021/07/12 01:00:24;;;;;;;3.13;2.15;;;;;;;18.01;64.03;100502.38;349381;27;114633;-72
2021/07/12 01:00:41;;;;;;;3.92;2.17;;;;;;;17.99;63.71;100499.00;348725;27;137674;-73
2021/07/12 01:01:00;;;;;;;3.63;2.00;;;;;;;18.02;63.86;100502.25;348737;27;137442;-71
2021/07/12 01:01:13;;;;;;;4.00;2.20;;;;;;;18.05;63.57;100512.69;350146;27;137589;-71
2021/07/12 01:01:27;;;;;;;3.63;2.20;;;;;;;18.03;63.60;100501.28;350604;27;91250;-73
2021/07/12 01:01:40;;;;;;;2.55;2.03;;;;;;;18.00;63.68;100506.00;351766;27;93007;-72
2021/07/12 01:01:53;;;;;;;2.67;2.10;;;;;;;18.05;63.81;100503.81;351153;27;69982;-73
2021/07/12 01:02:06;;;;;;;2.63;2.10;;;;;;;18.06;63.57;100494.81;349628;28;68942;-73
2021/07/12 01:02:19;;;;;;;2.72;2.03;;;;;;;18.04;63.44;100508.31;349724;28;67936;-71
2021/07/12 01:02:31;;;;;;;2.95;1.98;;;;;;;17.99;63.39;100502.50;350580;28;45586;-72
2021/07/12 01:02:45;;;;;;;2.78;1.84;;;;;;;18.00;63.79;100508.69;347768;28;93930;-72
2021/07/12 01:02:58;;;;;;;3.42;1.90;;;;;;;18.02;63.56;100501.41;348424;28;69039;-72
2021/07/12 01:03:11;;;;;;;3.17;1.90;;;;;;;18.03;63.72;100506.63;348435;28;68922;-72
2021/07/12 01:03:24;;;;;;;3.70;2.00;;;;;;;18.05;63.79;100499.34;348426;28;67674;-71
2021/07/12 01:03:37;;;;;;;3.65;2.00;;;;;;;18.02;63.72;100499.56;348388;28;69908;-72
2021/07/12 01:03:56;;;;;;;3.47;2.00;;;;;;;17.93;63.72;100500.34;346992;28;115511;-71
2021/07/12 01:04:08;;;;;;;3.08;1.92;;;;;;;17.94;63.73;100502.00;348054;27;138532;-71
2021/07/12 01:04:23;;;;;;;3.28;1.90;;;;;;;17.94;63.65;100502.88;349596;27;115002;-71
2021/07/12 01:04:36;;;;;;;3.33;1.90;;;;;;;17.97;63.70;100502.63;352098;27;46777;-73
2021/07/12 01:04:49;;;;;;;2.97;1.88;;;;;;;17.96;63.76;100502.75;351349;27;90853;-73
2021/07/12 01:05:05;;;;;;;2.65;1.80;;;;;;;17.88;64.03;100502.50;353649;27;45697;-69